createdAt,value
2023-01-29T00:01:14.244Z,-4.20
2023-01-29T00:03:44.213Z,-4.30
2023-01-29T00:06:14.350Z,-4.30
2023-01-29T00:08:44.314Z,-4.30
2023-01-29T00:11:16.921Z,-4.20
2023-01-29T00:13:46.955Z,-4.30
2023-01-29T00:16:16.923Z,-4.20
2023-01-29T00:18:46.970Z,-4.30
2023-01-29T00:21:18.404Z,-4.30
2023-01-29T00:23:48.535Z,-4.20
2023-01-29T00:26:21.237Z,-4.20
2023-01-29T00:28:51.474Z,-4.20
2023-01-29T00:31:23.093Z,-4.20
2023-01-29T00:33:53.557Z,-4.30
2023-01-29T00:36:24.979Z,-4.30
2023-01-29T00:38:58.970Z,-4.30
2023-01-29T00:41:45.930Z,-4.20
2023-01-29T00:44:28.651Z,-4.30
2023-01-29T00:46:58.693Z,-4.30
2023-01-29T00:49:30.407Z,-4.30
2023-01-29T00:52:13.922Z,-4.30
2023-01-29T00:54:43.893Z,-4.30
2023-01-29T00:57:16.530Z,-4.20
2023-01-29T00:59:46.552Z,-4.20
2023-01-29T01:02:28.889Z,-4.10
2023-01-29T01:05:00.011Z,-4.10
2023-01-29T01:07:29.969Z,-4.20
2023-01-29T01:10:12.300Z,-4.30
2023-01-29T01:12:44.899Z,-4.30
2023-01-29T01:15:14.886Z,-4.20
2023-01-29T01:17:44.839Z,-4.20
2023-01-29T01:20:16.260Z,-4.30
2023-01-29T01:22:46.442Z,-4.20
2023-01-29T01:25:17.693Z,-4.30
2023-01-29T01:27:50.228Z,-4.30
2023-01-29T01:30:20.397Z,-4.40
2023-01-29T01:32:50.344Z,-4.30
2023-01-29T01:35:20.491Z,-4.40
2023-01-29T01:37:50.471Z,-4.50
2023-01-29T01:40:22.179Z,-4.40
2023-01-29T01:42:56.586Z,-4.40
2023-01-29T01:45:30.019Z,-4.40
2023-01-29T01:48:03.718Z,-4.40
2023-01-29T01:50:36.625Z,-4.40
2023-01-29T01:53:09.621Z,-4.40
2023-01-29T01:55:43.190Z,-4.40
2023-01-29T01:58:20.378Z,-4.40
2023-01-29T02:00:50.441Z,-4.40
2023-01-29T02:03:33.405Z,-4.30
2023-01-29T02:06:16.431Z,-4.30
2023-01-29T02:09:04.172Z,-4.30
2023-01-29T02:11:34.153Z,-4.20
2023-01-29T02:14:06.806Z,-4.30
2023-01-29T02:16:38.254Z,-4.30
2023-01-29T02:19:10.539Z,-4.40
2023-01-29T02:21:54.906Z,-4.40
2023-01-29T02:24:44.973Z,-4.50
2023-01-29T02:27:17.139Z,-4.40
2023-01-29T02:29:58.744Z,-4.50
2023-01-29T02:32:34.405Z,-4.40
2023-01-29T02:35:25.371Z,-4.50
2023-01-29T02:38:00.461Z,-4.50
2023-01-29T02:40:34.156Z,-4.50
2023-01-29T02:43:10.395Z,-4.50
2023-01-29T02:45:48.013Z,-4.50
2023-01-29T02:48:21.538Z,-4.40
2023-01-29T02:50:56.423Z,-4.40
2023-01-29T02:53:30.498Z,-4.50
2023-01-29T02:56:04.746Z,-4.50
2023-01-29T02:58:38.519Z,-4.60
2023-01-29T03:01:13.945Z,-4.60
2023-01-29T03:03:46.055Z,-4.60
2023-01-29T03:06:22.490Z,-4.60
2023-01-29T03:08:57.566Z,-4.50
2023-01-29T03:11:30.256Z,-4.60
2023-01-29T03:14:02.708Z,-4.70
2023-01-29T03:16:38.673Z,-4.70
2023-01-29T03:19:12.336Z,-4.70
2023-01-29T03:21:59.208Z,-4.80
2023-01-29T03:24:50.559Z,-4.70
2023-01-29T03:27:36.110Z,-4.70
2023-01-29T03:30:19.721Z,-4.70
2023-01-29T03:32:57.686Z,-4.80
2023-01-29T03:35:36.834Z,-4.90
2023-01-29T03:38:10.104Z,-4.80
2023-01-29T03:40:44.613Z,-4.90
2023-01-29T03:43:17.802Z,-4.90
2023-01-29T03:45:56.070Z,-4.90
2023-01-29T03:48:35.782Z,-4.90
2023-01-29T03:51:14.698Z,-4.90
2023-01-29T03:53:47.448Z,-5.00
2023-01-29T03:56:33.862Z,-4.90
2023-01-29T03:59:12.117Z,-5.00
2023-01-29T04:02:03.002Z,-5.00
2023-01-29T04:04:37.378Z,-5.10
2023-01-29T04:07:12.088Z,-5.20
2023-01-29T04:09:45.552Z,-5.10
2023-01-29T04:12:17.373Z,-5.20
2023-01-29T04:14:47.510Z,-5.20
2023-01-29T04:17:19.778Z,-5.30
2023-01-29T04:20:17.184Z,-5.30
2023-01-29T04:22:50.071Z,-5.30
2023-01-29T04:25:29.088Z,-5.30
2023-01-29T04:28:08.775Z,-5.20
2023-01-29T04:30:45.024Z,-5.40
2023-01-29T04:33:22.622Z,-5.40
2023-01-29T04:36:15.461Z,-5.40
2023-01-29T04:38:53.870Z,-5.50
2023-01-29T04:41:27.217Z,-5.50
2023-01-29T04:44:02.995Z,-5.40
2023-01-29T04:46:37.482Z,-5.40
2023-01-29T04:49:17.465Z,-5.50
2023-01-29T04:51:54.388Z,-5.50
2023-01-29T04:54:31.820Z,-5.50
2023-01-29T04:57:09.421Z,-5.50
2023-01-29T04:59:43.822Z,-5.60
2023-01-29T05:02:15.043Z,-5.60
2023-01-29T05:04:47.351Z,-5.60
2023-01-29T05:07:21.056Z,-5.70
2023-01-29T05:09:51.732Z,-5.70
2023-01-29T05:12:21.658Z,-5.80
2023-01-29T05:14:52.562Z,-5.80
2023-01-29T05:17:23.472Z,-5.90
2023-01-29T05:19:53.435Z,-5.90
2023-01-29T05:22:26.222Z,-5.80
2023-01-29T05:24:56.397Z,-5.70
2023-01-29T05:27:43.379Z,-5.70
2023-01-29T05:30:14.844Z,-5.60
2023-01-29T05:32:45.018Z,-5.50
2023-01-29T05:35:15.000Z,-5.50
2023-01-29T05:37:47.554Z,-5.50
2023-01-29T05:40:18.105Z,-5.50
2023-01-29T05:42:48.225Z,-5.50
2023-01-29T05:45:18.379Z,-5.50
2023-01-29T05:47:48.751Z,-5.60
2023-01-29T05:50:19.638Z,-5.60
2023-01-29T05:52:52.177Z,-5.50
2023-01-29T05:55:22.128Z,-5.50
2023-01-29T05:57:52.138Z,-5.50
2023-01-29T06:00:22.835Z,-5.50
2023-01-29T06:02:53.167Z,-5.50
2023-01-29T06:05:23.189Z,-5.60
2023-01-29T06:07:55.700Z,-5.60
2023-01-29T06:10:25.591Z,-5.60
2023-01-29T06:12:55.486Z,-5.50
2023-01-29T06:15:26.609Z,-5.60
2023-01-29T06:17:56.853Z,-5.70
2023-01-29T06:20:26.944Z,-5.60
2023-01-29T06:22:59.508Z,-5.60
2023-01-29T06:25:44.265Z,-5.70
2023-01-29T06:28:14.191Z,-5.70
2023-01-29T06:30:44.124Z,-5.70
2023-01-29T06:33:14.133Z,-5.70
2023-01-29T06:35:44.092Z,-5.80
2023-01-29T06:38:16.642Z,-5.80
2023-01-29T06:40:46.579Z,-5.80
2023-01-29T06:43:16.505Z,-5.90
2023-01-29T06:45:51.040Z,-5.90
2023-01-29T06:48:21.378Z,-5.90
2023-01-29T06:50:52.021Z,-5.90
2023-01-29T06:53:25.074Z,-5.90
2023-01-29T06:55:55.756Z,-5.90
2023-01-29T06:58:25.788Z,-5.90
2023-01-29T07:00:56.072Z,-5.90
2023-01-29T07:03:26.068Z,-5.90
2023-01-29T07:05:56.145Z,-5.80
2023-01-29T07:08:28.726Z,-5.80
2023-01-29T07:11:02.646Z,-5.80
2023-01-29T07:13:32.652Z,-5.70
2023-01-29T07:16:03.220Z,-5.60
2023-01-29T07:18:33.581Z,-5.60
2023-01-29T07:21:07.811Z,-5.60
2023-01-29T07:23:40.563Z,-5.60
2023-01-29T07:26:10.870Z,-5.50
2023-01-29T07:28:41.810Z,-5.40
2023-01-29T07:31:15.353Z,-5.30
2023-01-29T07:33:46.250Z,-5.20
2023-01-29T07:36:16.729Z,-5.20
2023-01-29T07:38:52.214Z,-5.30
2023-01-29T07:41:22.377Z,-5.20
2023-01-29T07:43:52.347Z,-5.10
2023-01-29T07:46:22.230Z,-5.10
2023-01-29T07:48:52.124Z,-5.00
2023-01-29T07:51:22.073Z,-4.90
2023-01-29T07:53:54.706Z,-4.90
2023-01-29T07:56:24.628Z,-4.80
2023-01-29T07:58:54.597Z,-4.80
2023-01-29T08:01:24.601Z,-4.70
2023-01-29T08:03:54.609Z,-4.60
2023-01-29T08:06:24.576Z,-4.50
2023-01-29T08:08:57.532Z,-4.50
2023-01-29T08:11:27.458Z,-4.50
2023-01-29T08:13:57.458Z,-4.40
2023-01-29T08:16:27.376Z,-4.40
2023-01-29T08:18:57.371Z,-4.30
2023-01-29T08:21:27.360Z,-4.30
2023-01-29T08:26:49.754Z,-4.20
2023-01-29T08:29:19.685Z,-4.10
2023-01-29T08:31:49.677Z,-4.10
2023-01-29T08:34:19.623Z,-4.10
2023-01-29T08:36:49.728Z,-4.00
2023-01-29T08:39:22.612Z,-4.00
2023-01-29T08:41:53.513Z,-3.90
2023-01-29T08:44:23.550Z,-3.90
2023-01-29T08:46:53.539Z,-3.80
2023-01-29T08:49:23.567Z,-3.60
2023-01-29T08:51:54.820Z,-3.40
2023-01-29T08:54:27.576Z,-3.30
2023-01-29T08:56:57.551Z,-3.30
2023-01-29T08:59:27.666Z,-3.20
2023-01-29T09:01:58.470Z,-3.20
2023-01-29T09:04:28.690Z,-3.20
2023-01-29T09:06:58.645Z,-3.10
2023-01-29T09:09:31.209Z,-3.10
2023-01-29T09:12:01.173Z,-3.00
2023-01-29T09:14:31.161Z,-3.00
2023-01-29T09:17:01.161Z,-3.10
2023-01-29T09:19:31.116Z,-2.90
2023-01-29T09:22:01.091Z,-2.90
2023-01-29T09:24:35.115Z,-2.90
2023-01-29T09:27:05.265Z,-2.90
2023-01-29T09:29:36.040Z,-2.90
2023-01-29T09:32:07.177Z,-2.80
2023-01-29T09:34:37.335Z,-3.00
2023-01-29T09:37:08.174Z,-2.90
2023-01-29T09:39:40.822Z,-2.70
2023-01-29T09:42:14.469Z,-2.50
2023-01-29T09:45:30.051Z,-2.50
2023-01-29T09:48:23.477Z,-2.30
2023-01-29T09:50:55.484Z,-2.30
2023-01-29T09:53:30.399Z,-2.30
2023-01-29T09:56:06.932Z,-2.50
2023-01-29T09:58:38.655Z,-2.50
2023-01-29T10:01:16.617Z,-2.50
2023-01-29T10:04:02.863Z,-2.30
2023-01-29T10:06:46.810Z,-2.10
2023-01-29T10:09:40.015Z,-2.20
2023-01-29T10:12:22.367Z,-2.00
2023-01-29T10:14:59.022Z,-1.90
2023-01-29T10:17:41.056Z,-2.00
2023-01-29T10:20:31.741Z,-2.00
2023-01-29T10:23:09.782Z,-2.10
2023-01-29T10:25:43.031Z,-1.90
2023-01-29T10:28:20.503Z,-1.80
2023-01-29T10:30:52.726Z,-1.60
2023-01-29T10:33:36.157Z,-1.60
2023-01-29T10:36:16.874Z,-1.60
2023-01-29T10:38:47.833Z,-1.50
2023-01-29T10:41:42.906Z,-1.60
2023-01-29T10:44:34.626Z,-1.70
2023-01-29T10:47:19.397Z,-1.80
2023-01-29T10:49:59.479Z,-1.60
2023-01-29T10:52:38.921Z,-1.60
2023-01-29T10:55:21.170Z,-1.50
2023-01-29T10:58:02.854Z,-1.60
2023-01-29T11:00:38.730Z,-1.60
2023-01-29T11:03:27.658Z,-1.70
2023-01-29T11:06:04.219Z,-1.70
2023-01-29T11:08:38.077Z,-1.90
2023-01-29T11:11:11.166Z,-1.70
2023-01-29T11:13:44.416Z,-1.90
2023-01-29T11:16:17.055Z,-1.80
2023-01-29T11:18:55.622Z,-1.80
2023-01-29T11:21:26.260Z,-1.70
2023-01-29T11:24:09.681Z,-1.70
2023-01-29T11:26:42.783Z,-1.80
2023-01-29T11:29:45.088Z,-1.90
2023-01-29T11:32:28.695Z,-1.90
2023-01-29T11:35:03.825Z,-2.00
2023-01-29T11:37:39.579Z,-1.80
2023-01-29T11:40:42.984Z,-1.70
2023-01-29T11:43:33.803Z,-1.80
2023-01-29T11:46:05.692Z,-1.80
2023-01-29T11:48:44.534Z,-1.80
2023-01-29T11:51:16.176Z,-1.90
2023-01-29T11:53:47.824Z,-2.00
2023-01-29T11:56:24.733Z,-1.80
2023-01-29T11:58:55.610Z,-1.70
2023-01-29T12:01:34.354Z,-1.70
2023-01-29T12:04:13.054Z,-1.70
2023-01-29T12:06:47.869Z,-1.80
2023-01-29T12:09:20.363Z,-1.80
2023-01-29T12:11:50.429Z,-1.70
2023-01-29T12:14:41.402Z,-1.70
2023-01-29T12:17:14.899Z,-1.50
2023-01-29T12:19:50.986Z,-1.60
2023-01-29T12:22:24.538Z,-1.50
2023-01-29T12:24:57.865Z,-1.60
2023-01-29T12:27:32.948Z,-1.60
2023-01-29T12:30:07.213Z,-1.70
2023-01-29T12:32:44.100Z,-1.60
2023-01-29T12:35:22.449Z,-1.60
2023-01-29T12:37:57.637Z,-1.70
2023-01-29T12:40:30.520Z,-1.70
2023-01-29T12:43:05.723Z,-1.60
2023-01-29T12:45:36.133Z,-1.70
2023-01-29T12:48:10.761Z,-1.90
2023-01-29T12:50:44.286Z,-1.80
2023-01-29T12:53:26.509Z,-1.70
2023-01-29T12:55:59.474Z,-1.80
2023-01-29T12:58:33.794Z,-1.70
2023-01-29T13:01:07.796Z,-1.80
2023-01-29T13:03:42.963Z,-1.80
2023-01-29T13:06:18.934Z,-1.70
2023-01-29T13:08:53.943Z,-1.80
2023-01-29T13:11:26.277Z,-1.70
2023-01-29T13:13:58.987Z,-1.80
2023-01-29T13:16:31.368Z,-1.80
2023-01-29T13:19:02.844Z,-1.60
2023-01-29T13:21:39.641Z,-1.70
2023-01-29T13:24:14.769Z,-1.60
2023-01-29T13:26:47.958Z,-1.70
2023-01-29T13:29:25.574Z,-1.60
2023-01-29T13:31:56.125Z,-1.60
2023-01-29T13:34:28.586Z,-1.60
2023-01-29T13:37:02.262Z,-1.50
2023-01-29T13:39:33.601Z,-1.50
2023-01-29T13:42:05.498Z,-1.40
2023-01-29T13:44:37.686Z,-1.30
2023-01-29T13:47:10.059Z,-1.40
2023-01-29T13:49:42.057Z,-1.40
2023-01-29T13:52:31.532Z,-1.50
2023-01-29T13:55:03.977Z,-1.70
2023-01-29T13:57:40.767Z,-1.70
2023-01-29T14:01:02.657Z,-1.70
2023-01-29T14:04:06.784Z,-1.70
2023-01-29T14:06:46.635Z,-1.70
2023-01-29T14:10:00.512Z,-1.70
2023-01-29T14:12:42.307Z,-1.80
2023-01-29T14:15:29.570Z,-1.70
2023-01-29T14:18:16.335Z,-1.70
2023-01-29T14:20:56.547Z,-1.70
2023-01-29T14:23:33.730Z,-1.70
2023-01-29T14:26:08.373Z,-1.70
2023-01-29T14:28:38.639Z,-1.70
2023-01-29T14:31:09.223Z,-1.80
2023-01-29T14:33:42.586Z,-1.80
2023-01-29T14:36:16.073Z,-1.80
2023-01-29T14:38:52.526Z,-1.80
2023-01-29T14:41:29.270Z,-1.90
2023-01-29T14:44:29.399Z,-1.90
2023-01-29T14:46:59.645Z,-1.90
2023-01-29T14:49:54.491Z,-1.80
2023-01-29T14:52:27.119Z,-1.80
2023-01-29T14:55:01.712Z,-1.70
2023-01-29T14:57:34.984Z,-1.70
2023-01-29T15:00:07.465Z,-1.70
2023-01-29T15:02:42.010Z,-1.70
2023-01-29T15:05:15.636Z,-1.80
2023-01-29T15:07:51.648Z,-1.80
2023-01-29T15:10:24.098Z,-1.80
2023-01-29T15:13:01.591Z,-1.90
2023-01-29T15:15:37.097Z,-1.80
2023-01-29T15:18:10.060Z,-1.90
2023-01-29T15:20:41.449Z,-2.00
2023-01-29T15:23:28.122Z,-2.10
2023-01-29T15:26:01.788Z,-2.10
2023-01-29T15:28:36.278Z,-2.10
2023-01-29T15:31:08.049Z,-2.10
2023-01-29T15:33:39.116Z,-2.20
2023-01-29T15:36:10.349Z,-2.10
2023-01-29T15:38:40.416Z,-2.20
2023-01-29T15:41:20.553Z,-2.20
2023-01-29T15:43:59.876Z,-2.20
2023-01-29T15:46:31.718Z,-2.30
2023-01-29T15:49:04.688Z,-2.30
2023-01-29T15:51:34.925Z,-2.30
2023-01-29T15:54:06.824Z,-2.40
2023-01-29T15:56:39.593Z,-2.40
2023-01-29T15:59:18.345Z,-2.40
2023-01-29T16:01:48.436Z,-2.40
2023-01-29T16:04:31.484Z,-2.50
2023-01-29T16:07:02.179Z,-2.50
2023-01-29T16:09:32.628Z,-2.60
2023-01-29T16:12:03.093Z,-2.60
2023-01-29T16:14:35.679Z,-2.60
2023-01-29T16:17:14.418Z,-2.70
2023-01-29T16:19:44.350Z,-2.70
2023-01-29T16:22:14.338Z,-2.80
2023-01-29T16:24:47.367Z,-2.70
2023-01-29T16:27:17.768Z,-2.70
2023-01-29T16:29:50.483Z,-2.70
2023-01-29T16:32:20.544Z,-2.80
2023-01-29T16:34:52.590Z,-2.80
2023-01-29T16:37:26.207Z,-2.80
2023-01-29T16:39:56.454Z,-2.70
2023-01-29T16:42:37.894Z,-2.70
2023-01-29T16:45:29.106Z,-2.70
2023-01-29T16:48:28.957Z,-2.70
2023-01-29T16:51:06.659Z,-2.70
2023-01-29T16:53:38.957Z,-2.70
2023-01-29T16:56:10.915Z,-2.70
2023-01-29T16:58:40.880Z,-2.60
2023-01-29T17:01:14.595Z,-2.80
2023-01-29T17:03:45.004Z,-2.80
2023-01-29T17:06:16.231Z,-2.80
2023-01-29T17:08:46.342Z,-2.80
2023-01-29T17:11:27.709Z,-2.60
2023-01-29T17:13:59.259Z,-2.60
2023-01-29T17:16:34.166Z,-2.60
2023-01-29T17:19:04.238Z,-2.70
2023-01-29T17:21:34.218Z,-2.60
2023-01-29T17:24:04.208Z,-2.50
2023-01-29T17:26:34.572Z,-2.50
2023-01-29T17:29:04.636Z,-2.60
2023-01-29T17:31:37.296Z,-2.60
2023-01-29T17:34:14.318Z,-2.50
2023-01-29T17:36:44.671Z,-2.50
2023-01-29T17:39:21.820Z,-2.50
2023-01-29T17:41:53.884Z,-2.60
2023-01-29T17:44:26.223Z,-2.60
2023-01-29T17:46:58.808Z,-2.60
2023-01-29T17:49:30.165Z,-2.50
2023-01-29T17:52:00.261Z,-2.40
2023-01-29T17:54:30.306Z,-2.50
2023-01-29T17:57:00.797Z,-2.50
2023-01-29T17:59:33.895Z,-2.50
2023-01-29T18:02:06.726Z,-2.50
2023-01-29T18:04:38.593Z,-2.50
2023-01-29T18:07:08.653Z,-2.50
2023-01-29T18:09:38.757Z,-2.50
2023-01-29T18:12:11.659Z,-2.60
2023-01-29T18:14:41.589Z,-2.70
2023-01-29T18:17:14.631Z,-2.70
2023-01-29T18:19:44.579Z,-2.70
2023-01-29T18:22:14.593Z,-2.70
2023-01-29T18:24:44.754Z,-2.70
2023-01-29T18:27:15.087Z,-2.70
2023-01-29T18:29:45.254Z,-2.70
2023-01-29T18:32:17.811Z,-2.60
2023-01-29T18:34:47.714Z,-2.60
2023-01-29T18:37:17.847Z,-2.60
2023-01-29T18:39:47.988Z,-2.60
2023-01-29T18:42:17.988Z,-2.50
2023-01-29T18:44:48.099Z,-2.50
2023-01-29T18:47:20.858Z,-2.50
2023-01-29T18:49:52.005Z,-2.50
2023-01-29T18:52:22.188Z,-2.50
2023-01-29T18:54:52.613Z,-2.50
2023-01-29T18:58:27.779Z,-2.40
2023-01-29T19:00:14.512Z,-2.30
2023-01-29T19:02:47.830Z,-2.40
2023-01-29T19:05:21.490Z,-2.40
2023-01-29T19:07:52.294Z,-2.30
2023-01-29T19:10:22.964Z,-2.30
2023-01-29T19:12:53.029Z,-2.30
2023-01-29T19:15:23.038Z,-2.30
2023-01-29T19:17:55.961Z,-2.30
2023-01-29T19:20:26.119Z,-2.20
2023-01-29T19:22:56.323Z,-2.30
2023-01-29T19:25:26.281Z,-2.30
2023-01-29T19:27:56.409Z,-2.30
2023-01-29T19:30:26.576Z,-2.20
2023-01-29T19:32:59.142Z,-2.20
2023-01-29T19:35:29.337Z,-2.20
2023-01-29T19:37:59.319Z,-2.10
2023-01-29T19:40:29.311Z,-2.10
2023-01-29T19:42:59.639Z,-2.10
2023-01-29T19:45:38.605Z,-2.10
2023-01-29T19:48:23.004Z,-2.10
2023-01-29T19:50:56.803Z,-2.10
2023-01-29T19:53:27.220Z,-2.10
2023-01-29T19:56:00.825Z,-2.10
2023-01-29T19:58:30.995Z,-2.20
2023-01-29T20:01:02.413Z,-2.30
2023-01-29T20:03:35.335Z,-2.30
2023-01-29T20:06:06.711Z,-2.40
2023-01-29T20:08:37.133Z,-2.30
2023-01-29T20:11:07.731Z,-2.30
2023-01-29T20:13:37.902Z,-2.30
2023-01-29T20:16:09.175Z,-2.40
2023-01-29T20:18:41.854Z,-2.30
2023-01-29T20:21:13.403Z,-2.40
2023-01-29T20:23:45.656Z,-2.30
2023-01-29T20:26:18.133Z,-2.30
2023-01-29T20:28:48.952Z,-2.10
2023-01-29T20:31:19.582Z,-2.20
2023-01-29T20:33:52.214Z,-2.30
2023-01-29T20:36:22.145Z,-2.30
2023-01-29T20:38:52.103Z,-2.30
2023-01-29T20:41:22.570Z,-2.30
2023-01-29T20:43:52.781Z,-2.30
2023-01-29T20:46:22.740Z,-2.40
2023-01-29T20:48:56.869Z,-2.50
2023-01-29T20:51:27.048Z,-2.50
2023-01-29T20:53:57.554Z,-2.50
2023-01-29T20:56:36.109Z,-2.60
2023-01-29T20:59:12.498Z,-2.60
2023-01-29T21:01:42.448Z,-2.60
2023-01-29T21:04:15.078Z,-2.60
2023-01-29T21:06:47.178Z,-2.60
2023-01-29T21:09:17.103Z,-2.70
2023-01-29T21:11:47.798Z,-2.70
2023-01-29T21:14:17.760Z,-2.70
2023-01-29T21:16:47.816Z,-2.70
2023-01-29T21:19:20.546Z,-2.80
2023-01-29T21:21:50.540Z,-2.80
2023-01-29T21:24:22.180Z,-2.70
2023-01-29T21:26:52.113Z,-2.70
2023-01-29T21:29:22.239Z,-2.70
2023-01-29T21:31:54.674Z,-2.80
2023-01-29T21:34:27.704Z,-2.80
2023-01-29T21:36:57.808Z,-2.80
2023-01-29T21:39:27.906Z,-2.80
2023-01-29T21:42:10.214Z,-2.80
2023-01-29T21:44:40.406Z,-2.70
2023-01-29T21:47:15.061Z,-2.70
2023-01-29T21:49:47.991Z,-2.70
2023-01-29T21:52:18.549Z,-2.80
2023-01-29T21:54:49.032Z,-2.70
2023-01-29T21:57:19.654Z,-2.80
2023-01-29T21:59:52.431Z,-2.80
2023-01-29T22:02:26.476Z,-2.80
2023-01-29T22:05:16.359Z,-2.80
2023-01-29T22:07:48.479Z,-2.80
2023-01-29T22:10:20.641Z,-2.80
2023-01-29T22:12:51.123Z,-2.80
2023-01-29T22:15:23.588Z,-2.80
2023-01-29T22:17:55.230Z,-2.80
2023-01-29T22:20:30.320Z,-2.90
2023-01-29T22:23:01.679Z,-2.80
2023-01-29T22:25:32.311Z,-2.90
2023-01-29T22:28:02.705Z,-3.00
2023-01-29T22:30:32.707Z,-3.00
2023-01-29T22:33:03.218Z,-3.00
2023-01-29T22:35:35.873Z,-3.00
2023-01-29T22:38:06.676Z,-3.00
2023-01-29T22:40:36.661Z,-3.10
2023-01-29T22:43:07.089Z,-3.10
2023-01-29T22:45:37.020Z,-3.10
2023-01-29T22:48:08.275Z,-3.20
2023-01-29T22:50:40.905Z,-3.10
2023-01-29T22:53:11.718Z,-3.10
2023-01-29T22:55:41.688Z,-3.10
2023-01-29T22:58:11.626Z,-3.10
2023-01-29T23:00:41.913Z,-3.20
2023-01-29T23:03:11.890Z,-3.20
2023-01-29T23:05:44.463Z,-3.10
2023-01-29T23:08:14.404Z,-3.10
2023-01-29T23:10:44.393Z,-3.10
2023-01-29T23:13:14.382Z,-3.20
2023-01-29T23:15:44.407Z,-3.10
2023-01-29T23:18:14.455Z,-3.20
2023-01-29T23:20:47.082Z,-3.20
2023-01-29T23:23:16.992Z,-3.30
2023-01-29T23:25:59.316Z,-3.30
2023-01-29T23:28:29.317Z,-3.40
2023-01-29T23:30:59.389Z,-3.30
2023-01-29T23:33:29.596Z,-3.30
2023-01-29T23:36:02.148Z,-3.30
2023-01-29T23:38:32.075Z,-3.20
2023-01-29T23:41:02.126Z,-3.20
2023-01-29T23:43:32.925Z,-3.20
2023-01-29T23:46:02.901Z,-3.20
2023-01-29T23:48:32.890Z,-3.10
2023-01-29T23:51:05.491Z,-3.10
2023-01-29T23:53:35.418Z,-3.10
2023-01-29T23:56:06.942Z,-3.20
2023-01-29T23:58:37.313Z,-3.20
